< < Back
Terminal Aerodrome Forecast


Current Version              Previous Versions:   1  2  3  4  5  6  7  8  9  

Terminal Aerodrome Forecast

345
FTUS42 KCHS 310500
TAFSAV
TAF
KSAV 310520Z 3106/0106 36004KT P6SM SCT035
     FM311400 31007KT P6SM SCT045
     FM312300 28005KT P6SM SCT045=

Latest METAR

108
SAUS80 KWBC 311700 CCA
MTRSAV
METAR KSAV 311653Z VRB03KT 10SM SCT049 23/07 A2986 RMK AO2 SLP110
T02280072


USA.gov is the U.S. government's official web portal to all federal, state and local government web resources and services.